createdAt,value
2023-04-02T00:02:21.649Z,52.85
2023-04-02T00:05:31.722Z,52.82
2023-04-02T00:08:39.239Z,53.07
2023-04-02T00:11:09.417Z,52.89
2023-04-02T00:13:47.301Z,52.95
2023-04-02T00:16:24.941Z,53.13
2023-04-02T00:18:56.695Z,53.03
2023-04-02T00:21:37.257Z,53.37
2023-04-02T00:24:16.679Z,53.85
2023-04-02T00:26:49.524Z,53.64
2023-04-02T00:29:20.292Z,53.33
2023-04-02T00:31:52.414Z,53.13
2023-04-02T00:34:31.282Z,53.25
2023-04-02T00:37:00.353Z,53.44
2023-04-02T00:39:33.541Z,53.82
2023-04-02T00:42:07.253Z,53.65
2023-04-02T00:44:47.095Z,54.00
2023-04-02T00:47:48.255Z,54.12
2023-04-02T00:50:40.414Z,54.10
2023-04-02T00:53:24.653Z,53.94
2023-04-02T00:55:54.186Z,54.16
2023-04-02T00:58:28.499Z,54.46
2023-04-02T01:00:59.528Z,54.29
2023-04-02T01:03:30.770Z,55.14
2023-04-02T01:06:11.207Z,55.22
2023-04-02T01:08:48.581Z,55.00
2023-04-02T01:11:31.188Z,55.42
2023-04-02T01:14:15.068Z,55.61
2023-04-02T01:17:12.886Z,56.02
2023-04-02T01:20:10.525Z,56.24
2023-04-02T01:22:48.643Z,56.73
2023-04-02T01:25:40.178Z,56.59
2023-04-02T01:28:37.871Z,56.61
2023-04-02T01:31:07.345Z,56.35
2023-04-02T01:33:37.080Z,56.35
2023-04-02T01:36:12.314Z,56.74
2023-04-02T01:38:59.038Z,56.72
2023-04-02T01:41:36.857Z,56.15
2023-04-02T01:44:12.809Z,56.05
2023-04-02T01:46:45.315Z,55.72
2023-04-02T01:49:21.123Z,55.74
2023-04-02T01:51:59.520Z,55.84
2023-04-02T01:54:29.241Z,56.12
2023-04-02T01:56:58.401Z,55.93
2023-04-02T01:59:29.670Z,55.17
2023-04-02T02:02:13.531Z,55.22
2023-04-02T02:04:42.816Z,55.49
2023-04-02T02:07:17.042Z,55.84
2023-04-02T02:09:47.397Z,56.42
2023-04-02T02:12:16.743Z,56.36
2023-04-02T02:14:50.963Z,56.40
2023-04-02T02:17:28.366Z,56.44
2023-04-02T02:20:00.618Z,56.70
2023-04-02T02:22:34.312Z,56.70
2023-04-02T02:25:07.340Z,56.96
2023-04-02T02:27:51.026Z,56.92
2023-04-02T02:31:10.724Z,56.41
2023-04-02T02:33:44.998Z,56.66
2023-04-02T06:34:38.937Z,46.48
2023-04-02T06:37:29.941Z,45.03
2023-04-02T06:40:01.663Z,44.22
2023-04-02T06:42:39.597Z,43.72
2023-04-02T06:45:21.968Z,43.19
2023-04-02T06:47:53.695Z,42.67
2023-04-02T06:51:04.643Z,41.61
2023-04-02T06:53:41.451Z,41.45
2023-04-02T06:56:32.594Z,40.75
2023-04-02T06:59:04.983Z,41.14
2023-04-02T07:01:44.370Z,41.61
2023-04-02T07:04:14.584Z,41.76
2023-04-02T07:06:44.940Z,41.61
2023-04-02T07:09:15.574Z,41.17
2023-04-02T07:11:47.366Z,40.39
2023-04-02T07:14:17.276Z,39.93
2023-04-02T07:16:47.941Z,39.86
2023-04-02T07:19:22.721Z,39.56
2023-04-02T07:21:55.969Z,39.55
2023-04-02T07:24:26.750Z,39.57
2023-04-02T07:26:57.895Z,39.20
2023-04-02T07:29:28.808Z,38.59
2023-04-02T07:31:58.494Z,38.16
2023-04-02T07:34:31.644Z,38.36
2023-04-02T07:37:04.943Z,38.26
2023-04-02T07:39:40.792Z,37.80
2023-04-02T07:42:11.857Z,37.18
2023-04-02T07:44:43.302Z,36.87
2023-04-02T07:47:14.132Z,36.50
2023-04-02T07:49:44.104Z,36.28
2023-04-02T07:52:13.836Z,36.09
2023-04-02T07:54:44.820Z,35.54
2023-04-02T07:57:17.286Z,35.31
2023-04-02T07:59:48.286Z,34.99
2023-04-02T08:02:23.025Z,34.85
2023-04-02T08:04:53.828Z,34.77
2023-04-02T08:07:23.930Z,34.57
2023-04-02T08:09:53.936Z,34.59
2023-04-02T08:12:23.654Z,34.30
2023-04-02T08:14:53.492Z,33.42
2023-04-02T08:17:24.474Z,32.50
2023-04-02T08:19:55.140Z,31.59
2023-04-02T08:22:24.920Z,31.15
2023-04-02T08:24:58.285Z,30.45
2023-04-02T08:27:28.212Z,29.62
2023-04-02T08:29:57.480Z,28.82
2023-04-02T08:32:29.443Z,28.08
2023-04-02T08:34:58.824Z,27.51
2023-04-02T08:37:28.390Z,27.01
2023-04-02T08:39:58.113Z,26.65
2023-04-02T08:42:47.019Z,26.21
2023-04-02T08:45:57.483Z,26.65
2023-04-02T08:48:28.522Z,27.05
2023-04-02T08:50:59.731Z,27.32
2023-04-02T08:53:35.946Z,27.73
2023-04-02T08:56:42.427Z,28.05
2023-04-02T08:59:32.575Z,28.61
2023-04-02T09:02:13.014Z,29.21
2023-04-02T09:04:43.472Z,29.19
2023-04-02T09:07:17.301Z,29.36
2023-04-02T09:09:53.742Z,28.90
2023-04-02T09:12:32.447Z,28.44
2023-04-02T09:15:11.027Z,27.35
2023-04-02T09:17:53.072Z,26.70
2023-04-02T09:20:27.123Z,25.37
2023-04-02T09:22:57.609Z,25.02
2023-04-02T09:25:34.580Z,23.68
2023-04-02T09:28:06.664Z,23.26
2023-04-02T09:30:59.414Z,22.85
2023-04-02T09:33:52.164Z,22.60
2023-04-02T09:36:40.084Z,22.34
2023-04-02T09:39:22.786Z,23.01
2023-04-02T09:42:05.051Z,23.21
2023-04-02T09:44:35.891Z,23.21
2023-04-02T09:47:23.964Z,22.69
2023-04-02T09:49:53.521Z,22.44
2023-04-02T09:52:32.121Z,22.40
2023-04-02T09:55:31.419Z,22.67
2023-04-02T09:58:28.055Z,22.96
2023-04-02T10:00:59.544Z,21.94
2023-04-02T10:03:34.577Z,21.45
2023-04-02T10:06:20.587Z,20.86
2023-04-02T10:08:52.584Z,20.82
2023-04-02T10:11:43.677Z,21.13
2023-04-02T10:14:24.105Z,20.69
2023-04-02T10:17:02.648Z,20.53
2023-04-02T10:19:39.773Z,20.80
2023-04-02T10:22:21.786Z,20.43
2023-04-02T10:24:52.593Z,20.74
2023-04-02T10:27:38.247Z,21.31
2023-04-02T10:30:21.685Z,20.85
2023-04-02T10:33:23.356Z,19.93
2023-04-02T10:36:03.330Z,19.38
2023-04-02T10:39:03.260Z,20.24
2023-04-02T10:41:58.759Z,20.39
2023-04-02T10:44:40.038Z,20.18
2023-04-02T10:47:29.812Z,20.86
2023-04-02T10:50:44.281Z,20.36
2023-04-02T10:53:25.986Z,20.74
2023-04-02T10:56:09.774Z,20.95
2023-04-02T10:59:16.760Z,21.85
2023-04-02T11:01:50.223Z,22.58
2023-04-02T11:04:24.982Z,22.70
2023-04-02T11:07:14.359Z,23.53
2023-04-02T11:09:49.290Z,24.14
2023-04-02T11:12:31.103Z,23.36
2023-04-02T11:15:02.833Z,21.80
2023-04-02T11:17:34.044Z,20.99
2023-04-02T11:20:45.294Z,21.43
2023-04-02T11:23:54.228Z,21.68
2023-04-02T11:26:38.114Z,23.20
2023-04-02T11:29:22.939Z,24.70
2023-04-02T11:32:15.816Z,24.91
2023-04-02T11:34:47.043Z,25.20
2023-04-02T11:37:41.802Z,25.41
2023-04-02T11:40:13.262Z,25.39
2023-04-02T11:42:52.518Z,25.83
2023-04-02T11:45:28.421Z,26.50
2023-04-02T11:48:03.015Z,27.01
2023-04-02T11:50:46.718Z,27.59
2023-04-02T11:53:16.112Z,27.61
2023-04-02T11:56:06.991Z,27.16
2023-04-02T11:59:00.443Z,25.65
2023-04-02T12:01:32.242Z,25.35
2023-04-02T12:04:12.453Z,24.51
2023-04-02T12:07:16.859Z,24.27
2023-04-02T12:10:01.435Z,24.59
2023-04-02T12:12:41.015Z,24.90
2023-04-02T12:15:35.321Z,24.90
2023-04-02T12:18:26.127Z,24.53
2023-04-02T12:20:59.010Z,24.18
2023-04-02T12:23:36.687Z,23.52
2023-04-02T12:26:39.074Z,22.96
2023-04-02T12:29:29.478Z,23.45
2023-04-02T12:32:21.797Z,23.35
2023-04-02T12:34:55.200Z,23.50
2023-04-02T12:37:31.716Z,23.79
2023-04-02T12:40:17.397Z,23.42
2023-04-02T12:42:50.066Z,23.61
2023-04-02T12:45:30.104Z,23.60
2023-04-02T12:48:03.930Z,23.67
2023-04-02T12:50:35.969Z,23.76
2023-04-02T12:53:28.410Z,23.49
2023-04-02T12:56:03.115Z,23.63
2023-04-02T12:58:50.222Z,23.61
2023-04-02T13:01:29.231Z,23.76
2023-04-02T13:04:02.905Z,23.66
2023-04-02T13:06:36.716Z,23.45
2023-04-02T13:09:28.645Z,22.97
2023-04-02T13:12:00.936Z,22.90
2023-04-02T13:14:34.344Z,23.06
2023-04-02T13:17:05.993Z,23.16
2023-04-02T13:19:37.601Z,23.31
2023-04-02T13:22:32.849Z,23.37
2023-04-02T13:25:04.345Z,24.83
2023-04-02T13:27:36.838Z,26.95
2023-04-02T13:30:28.161Z,28.31
2023-04-02T13:33:00.911Z,29.69
2023-04-02T13:35:33.471Z,29.98
2023-04-02T13:38:07.241Z,30.02
2023-04-02T13:40:41.565Z,30.20
2023-04-02T13:43:46.194Z,30.36
2023-04-02T13:46:31.082Z,30.84
2023-04-02T13:49:04.044Z,30.69
2023-04-02T13:51:47.517Z,31.49
2023-04-02T13:54:31.729Z,31.91
2023-04-02T13:57:07.291Z,32.20
2023-04-02T13:59:42.817Z,32.00
2023-04-02T14:02:24.138Z,31.56
2023-04-02T14:05:20.498Z,31.69
2023-04-02T14:08:10.153Z,31.53
2023-04-02T14:10:52.101Z,31.68
2023-04-02T14:13:34.141Z,31.96
2023-04-02T14:16:17.156Z,33.17
2023-04-02T14:18:49.816Z,34.81
2023-04-02T14:21:53.217Z,34.64
2023-04-02T14:24:36.669Z,36.35
2023-04-02T14:27:31.420Z,37.51
2023-04-02T14:30:27.397Z,38.02
2023-04-02T14:33:27.569Z,39.57
2023-04-02T14:36:11.360Z,40.51
2023-04-02T14:39:01.487Z,42.27
2023-04-02T14:41:49.261Z,43.39
2023-04-02T14:44:24.495Z,44.97
2023-04-02T14:47:05.594Z,44.44
2023-04-02T14:49:43.960Z,44.20
2023-04-02T14:52:28.429Z,40.36
2023-04-02T14:55:08.630Z,38.84
2023-04-02T14:57:45.854Z,38.17
2023-04-02T15:00:31.777Z,38.12
2023-04-02T15:03:14.863Z,39.07
2023-04-02T15:05:56.606Z,39.75
2023-04-02T15:08:32.695Z,40.18
2023-04-02T15:11:08.612Z,40.74
2023-04-02T15:13:52.986Z,40.88
2023-04-02T15:16:28.193Z,41.16
2023-04-02T15:19:00.164Z,40.76
2023-04-02T15:24:15.392Z,40.67
2023-04-02T15:27:23.888Z,40.85
2023-04-02T15:30:07.747Z,40.64
2023-04-02T15:32:41.741Z,40.92
2023-04-02T15:35:34.041Z,41.18
2023-04-02T15:38:31.194Z,40.81
2023-04-02T15:41:34.107Z,40.38
2023-04-02T15:44:15.954Z,40.10
2023-04-02T15:47:21.313Z,39.50
2023-04-02T15:50:38.288Z,39.35
2023-04-02T15:54:02.463Z,39.34
2023-04-02T15:57:04.724Z,39.57
2023-04-02T15:59:43.395Z,39.52
2023-04-02T16:03:03.708Z,39.34
2023-04-02T16:06:00.179Z,39.23
2023-04-02T16:08:58.816Z,39.40
2023-04-02T16:11:38.414Z,39.47
2023-04-02T16:14:20.276Z,39.37
2023-04-02T16:17:23.856Z,39.32
2023-04-02T16:20:29.130Z,39.33
2023-04-02T16:23:17.285Z,38.87
2023-04-02T16:25:59.328Z,38.26
2023-04-02T16:28:52.345Z,38.24
2023-04-02T16:31:31.214Z,38.32
2023-04-02T16:34:29.326Z,38.30
2023-04-02T16:37:11.630Z,38.28
2023-04-02T16:40:02.025Z,38.19
2023-04-02T16:42:48.864Z,38.38
2023-04-02T16:45:32.209Z,38.49
2023-04-02T16:48:44.558Z,38.57
2023-04-02T16:51:49.941Z,38.69
2023-04-02T16:54:40.592Z,38.76
2023-04-02T16:57:37.314Z,38.74
2023-04-02T17:00:19.661Z,38.62
2023-04-02T17:03:13.745Z,38.71
2023-04-02T17:06:03.567Z,38.67
2023-04-02T17:08:54.796Z,39.07
2023-04-02T17:11:52.628Z,39.16
2023-04-02T17:14:43.133Z,39.44
2023-04-02T17:17:19.979Z,39.56
2023-04-02T17:20:00.203Z,39.95
2023-04-02T17:22:33.910Z,40.34
2023-04-02T17:25:09.873Z,40.63
2023-04-02T17:27:57.479Z,40.91
2023-04-02T17:30:43.005Z,41.24
2023-04-02T17:33:20.792Z,41.52
2023-04-02T17:36:04.353Z,41.71
2023-04-02T17:39:01.912Z,41.67
2023-04-02T17:41:53.213Z,41.93
2023-04-02T17:44:47.716Z,42.01
2023-04-02T17:47:34.290Z,42.23
2023-04-02T17:50:29.675Z,42.15
2023-04-02T17:53:07.028Z,42.30
2023-04-02T17:55:42.350Z,42.19
2023-04-02T17:58:17.412Z,42.14
2023-04-02T18:01:14.606Z,42.31
2023-04-02T18:04:17.658Z,42.58
2023-04-02T18:07:32.501Z,42.73
2023-04-02T18:10:23.482Z,43.09
2023-04-02T18:13:07.534Z,43.26
2023-04-02T18:15:58.182Z,43.35
2023-04-02T18:18:45.470Z,43.83
2023-04-02T18:21:27.681Z,44.30
2023-04-02T18:24:23.420Z,44.80
2023-04-02T18:27:53.460Z,45.23
2023-04-02T18:30:51.226Z,45.93
2023-04-02T18:33:44.877Z,46.21
2023-04-02T18:36:39.059Z,46.69
2023-04-02T18:39:48.512Z,47.61
2023-04-02T18:42:39.571Z,48.38
2023-04-02T18:45:31.985Z,48.68
2023-04-02T18:48:31.821Z,49.37
2023-04-02T18:51:18.483Z,49.81
2023-04-02T18:54:20.111Z,50.30
2023-04-02T18:57:00.504Z,50.35
2023-04-02T18:59:42.089Z,50.30
2023-04-02T19:02:27.626Z,50.47
2023-04-02T19:05:06.276Z,50.95
2023-04-02T19:07:40.234Z,50.83
2023-04-02T19:10:33.376Z,50.82
2023-04-02T19:13:14.703Z,50.99
2023-04-02T19:15:53.667Z,51.06
2023-04-02T19:18:45.903Z,51.26
2023-04-02T19:21:22.075Z,51.70
2023-04-02T19:24:11.044Z,51.56
2023-04-02T19:27:08.740Z,51.91
2023-04-02T19:30:00.284Z,52.02
2023-04-02T19:33:20.906Z,52.28
2023-04-02T19:36:12.367Z,52.72
2023-04-02T19:38:59.722Z,52.92
2023-04-02T19:41:32.220Z,53.19
2023-04-02T19:44:01.908Z,53.36
2023-04-02T19:46:31.866Z,53.17
2023-04-02T19:49:10.247Z,53.11
2023-04-02T19:51:40.044Z,53.12
2023-04-02T19:54:11.645Z,53.06
2023-04-02T19:56:43.256Z,53.09
2023-04-02T20:01:47.628Z,53.13
2023-04-02T20:04:18.374Z,53.22
2023-04-02T20:06:49.920Z,53.42
2023-04-02T20:09:22.234Z,53.60
2023-04-02T20:11:52.496Z,53.93
2023-04-02T20:14:22.944Z,53.94
2023-04-02T20:16:53.349Z,53.94
2023-04-02T20:19:23.418Z,53.96
2023-04-02T20:21:53.299Z,54.19
2023-04-02T20:24:22.997Z,54.54
2023-04-02T20:26:52.465Z,54.47
2023-04-02T20:29:23.577Z,54.52
2023-04-02T20:31:53.721Z,54.89
2023-04-02T20:34:23.973Z,54.95
2023-04-02T20:36:54.050Z,55.11
2023-04-02T20:39:24.770Z,55.04
2023-04-02T20:41:54.902Z,55.21
2023-04-02T20:44:24.493Z,55.35
2023-04-02T20:46:53.393Z,55.70
2023-04-02T20:49:22.984Z,56.18
2023-04-02T20:51:53.297Z,56.00
2023-04-02T20:54:22.604Z,56.01
2023-04-02T20:56:52.191Z,56.31
2023-04-02T20:59:21.575Z,56.21
2023-04-02T21:01:50.880Z,56.47
2023-04-02T21:04:21.272Z,56.78
2023-04-02T21:06:51.033Z,56.66
2023-04-02T21:09:21.952Z,56.71
2023-04-02T21:11:51.860Z,56.68
2023-04-02T21:14:21.377Z,56.95
2023-04-02T21:16:51.224Z,57.37
2023-04-02T21:19:20.740Z,57.55
2023-04-02T21:21:49.602Z,57.54
2023-04-02T21:24:19.125Z,57.91
2023-04-02T21:26:48.859Z,57.97
2023-04-02T21:29:19.126Z,58.10
2023-04-02T21:31:49.373Z,58.29
2023-04-02T21:34:19.454Z,58.12
2023-04-02T21:36:51.096Z,58.08
2023-04-02T21:39:24.772Z,58.26
2023-04-02T21:41:55.572Z,58.20
2023-04-02T21:44:25.302Z,58.26
2023-04-02T21:46:54.952Z,57.86
2023-04-02T21:49:25.926Z,57.71
2023-04-02T21:51:55.074Z,57.82
2023-04-02T21:54:24.208Z,57.92
2023-04-02T21:56:53.787Z,58.17
2023-04-02T21:59:23.355Z,58.28
2023-04-02T22:01:53.613Z,58.19
2023-04-02T22:04:25.565Z,58.24
2023-04-02T22:06:54.987Z,58.22
2023-04-02T22:09:27.072Z,58.48
2023-04-02T22:12:02.750Z,58.57
2023-04-02T22:14:31.928Z,58.54
2023-04-02T22:17:02.136Z,58.46
2023-04-02T22:19:31.568Z,58.62
2023-04-02T22:22:01.205Z,58.94
2023-04-02T22:24:30.897Z,59.14
2023-04-02T22:27:00.233Z,59.03
2023-04-02T22:29:29.696Z,58.79
2023-04-02T22:31:58.946Z,58.94
2023-04-02T22:34:27.957Z,58.85
2023-04-02T22:36:57.077Z,59.16
2023-04-02T22:39:26.246Z,59.45
2023-04-02T22:41:55.390Z,59.51
2023-04-02T22:44:24.564Z,59.70
2023-04-02T22:46:53.759Z,60.00
2023-04-02T22:49:23.069Z,60.24
2023-04-02T22:51:52.405Z,60.17
2023-04-02T22:54:21.569Z,60.04
2023-04-02T22:56:50.754Z,60.08
2023-04-02T22:59:19.747Z,60.34
2023-04-02T23:01:49.573Z,60.47
2023-04-02T23:04:18.386Z,60.29
2023-04-02T23:06:48.258Z,60.29
2023-04-02T23:09:17.861Z,60.22
2023-04-02T23:11:46.520Z,60.48
2023-04-02T23:14:15.948Z,60.39
2023-04-02T23:16:45.082Z,60.20
2023-04-02T23:19:14.408Z,60.06
2023-04-02T23:21:43.572Z,60.52
2023-04-02T23:24:13.612Z,60.63
2023-04-02T23:26:42.855Z,60.62
2023-04-02T23:29:12.265Z,60.25
2023-04-02T23:31:41.805Z,60.04
2023-04-02T23:34:11.499Z,60.13
2023-04-02T23:36:41.179Z,60.06
2023-04-02T23:39:15.142Z,59.79
2023-04-02T23:41:44.955Z,59.58
2023-04-02T23:44:14.611Z,59.47
2023-04-02T23:46:44.367Z,59.50
2023-04-02T23:49:14.016Z,59.64
2023-04-02T23:51:43.704Z,59.54
2023-04-02T23:54:13.210Z,59.36
2023-04-02T23:56:42.856Z,59.28
2023-04-02T23:59:12.483Z,59.46
